createdAt,value
2022-12-31T00:00:41.396Z,9.20
2022-12-31T00:03:10.592Z,5.50
2022-12-31T00:05:38.941Z,7.60
2022-12-31T00:08:07.171Z,6.53
2022-12-31T00:10:41.877Z,11.35
2022-12-31T00:13:28.828Z,9.02
2022-12-31T00:16:12.181Z,6.55
2022-12-31T00:18:44.595Z,5.20
2022-12-31T00:21:13.615Z,6.90
2022-12-31T00:23:41.911Z,6.25
2022-12-31T00:26:18.442Z,7.95
2022-12-31T00:28:46.554Z,7.85
2022-12-31T00:31:17.981Z,10.40
2022-12-31T00:33:46.815Z,9.15
2022-12-31T00:36:19.271Z,7.45
2022-12-31T00:38:49.392Z,4.93
2022-12-31T00:41:19.306Z,9.55
2022-12-31T00:43:48.040Z,6.25
2022-12-31T00:49:02.629Z,5.47
2022-12-31T00:51:31.299Z,5.63
2022-12-31T00:53:59.992Z,6.78
2022-12-31T00:56:31.183Z,8.60
2022-12-31T00:59:00.592Z,9.40
2022-12-31T01:01:38.226Z,12.18
2022-12-31T01:06:38.378Z,8.05
2022-12-31T01:09:07.706Z,5.55
2022-12-31T01:11:36.374Z,6.45
2022-12-31T01:14:13.770Z,11.68
2022-12-31T01:16:45.074Z,8.60
2022-12-31T01:19:17.696Z,5.43
2022-12-31T01:21:46.835Z,6.03
2022-12-31T01:24:15.413Z,4.47
2022-12-31T01:26:44.372Z,11.25
2022-12-31T01:31:59.403Z,9.63
2022-12-31T01:34:27.784Z,10.90
2022-12-31T01:36:56.050Z,8.55
2022-12-31T01:39:24.422Z,6.43
2022-12-31T01:41:52.715Z,4.80
2022-12-31T01:44:26.898Z,7.30
2022-12-31T01:47:18.638Z,6.75
2022-12-31T01:49:54.039Z,4.57
2022-12-31T01:52:33.423Z,5.32
2022-12-31T01:55:28.661Z,4.90
2022-12-31T01:58:06.928Z,7.05
2022-12-31T02:00:54.364Z,5.70
2022-12-31T02:03:24.284Z,13.18
2022-12-31T02:06:01.186Z,6.90
2022-12-31T02:08:48.248Z,10.55
2022-12-31T02:11:33.334Z,6.57
2022-12-31T02:14:07.945Z,9.60
2022-12-31T02:16:58.269Z,7.20
2022-12-31T02:19:32.477Z,5.13
2022-12-31T02:22:17.127Z,10.25
2022-12-31T02:24:51.159Z,5.85
2022-12-31T02:27:37.459Z,10.70
2022-12-31T02:30:13.664Z,5.30
2022-12-31T02:33:13.890Z,6.65
2022-12-31T02:36:02.008Z,6.80
2022-12-31T02:38:49.906Z,7.35
2022-12-31T02:41:38.130Z,8.25
2022-12-31T02:44:30.076Z,7.00
2022-12-31T02:47:10.434Z,3.40
2022-12-31T02:49:50.906Z,6.28
2022-12-31T02:52:47.919Z,4.53
2022-12-31T02:55:41.649Z,5.15
2022-12-31T02:58:50.955Z,4.70
2022-12-31T03:01:46.841Z,6.95
2022-12-31T03:04:34.135Z,6.63
2022-12-31T03:07:08.212Z,4.90
2022-12-31T03:09:37.395Z,6.57
2022-12-31T03:12:29.663Z,3.20
2022-12-31T03:14:58.130Z,5.10
2022-12-31T03:17:44.574Z,6.28
2022-12-31T03:20:31.183Z,6.05
2022-12-31T03:22:59.521Z,7.30
2022-12-31T03:25:34.199Z,8.00
2022-12-31T03:28:05.760Z,5.82
2022-12-31T03:30:34.974Z,5.28
2022-12-31T03:33:04.577Z,6.38
2022-12-31T03:35:34.421Z,4.53
2022-12-31T03:38:03.833Z,3.28
2022-12-31T03:40:35.210Z,3.47
2022-12-31T03:43:03.541Z,5.53
2022-12-31T03:45:31.809Z,4.85
2022-12-31T03:48:00.100Z,5.35
2022-12-31T03:50:46.982Z,3.55
2022-12-31T03:53:16.715Z,6.60
2022-12-31T03:55:45.180Z,5.18
2022-12-31T03:58:13.335Z,7.93
2022-12-31T04:01:00.394Z,6.93
2022-12-31T04:03:29.132Z,6.38
2022-12-31T04:05:57.399Z,10.70
2022-12-31T04:08:25.764Z,7.18
2022-12-31T04:10:53.955Z,5.88
2022-12-31T04:13:22.117Z,9.38
2022-12-31T04:15:52.217Z,7.32
2022-12-31T04:18:38.994Z,9.98
2022-12-31T04:21:07.256Z,12.07
2022-12-31T04:23:35.436Z,14.95
2022-12-31T04:26:03.664Z,14.10
2022-12-31T04:28:32.151Z,14.02
2022-12-31T04:31:00.331Z,10.98
2022-12-31T04:33:28.477Z,7.70
2022-12-31T04:36:04.333Z,12.98
2022-12-31T04:38:32.627Z,14.43
2022-12-31T04:41:19.162Z,11.32
2022-12-31T04:43:57.675Z,12.60
2022-12-31T04:46:28.126Z,18.77
2022-12-31T04:48:56.415Z,15.55
2022-12-31T04:51:25.569Z,20.77
2022-12-31T04:53:53.968Z,21.00
2022-12-31T04:56:22.639Z,18.90
2022-12-31T04:59:09.708Z,16.65
2022-12-31T05:01:39.798Z,17.23
2022-12-31T05:04:08.188Z,28.23
2022-12-31T05:06:36.709Z,21.58
2022-12-31T05:09:04.976Z,32.28
2022-12-31T05:11:33.288Z,33.50
2022-12-31T05:14:01.621Z,22.38
2022-12-31T05:16:29.769Z,27.90
2022-12-31T05:18:58.032Z,26.98
2022-12-31T05:21:26.169Z,32.85
2022-12-31T05:23:54.415Z,37.33
2022-12-31T05:26:22.753Z,32.20
2022-12-31T05:28:51.022Z,33.05
2022-12-31T05:31:19.176Z,35.13
2022-12-31T05:33:49.140Z,28.35
2022-12-31T05:36:17.468Z,34.28
2022-12-31T05:38:45.604Z,26.15
2022-12-31T05:41:13.721Z,32.45
2022-12-31T05:43:42.178Z,22.85
2022-12-31T05:46:10.380Z,28.35
2022-12-31T05:48:38.434Z,29.58
2022-12-31T05:51:06.726Z,22.17
2022-12-31T05:53:34.783Z,21.30
2022-12-31T05:56:02.945Z,26.58
2022-12-31T05:58:31.124Z,16.48
2022-12-31T06:00:59.216Z,29.58
2022-12-31T06:03:27.365Z,24.48
2022-12-31T06:05:55.487Z,19.48
2022-12-31T06:08:24.235Z,30.58
2022-12-31T06:10:54.541Z,24.45
2022-12-31T06:13:22.625Z,19.02
2022-12-31T06:15:50.791Z,24.15
2022-12-31T06:18:19.005Z,11.23
2022-12-31T06:20:47.061Z,23.70
2022-12-31T06:23:15.200Z,32.45
2022-12-31T06:25:43.177Z,27.70
2022-12-31T06:28:17.810Z,29.00
2022-12-31T06:30:48.736Z,29.33
2022-12-31T06:33:16.859Z,27.40
2022-12-31T06:35:44.970Z,31.80
2022-12-31T06:38:13.112Z,22.88
2022-12-31T06:40:41.301Z,25.67
2022-12-31T06:43:09.317Z,28.73
2022-12-31T06:45:37.441Z,27.23
2022-12-31T06:48:05.873Z,22.33
2022-12-31T06:50:34.099Z,23.42
2022-12-31T06:55:49.718Z,26.02
2022-12-31T06:58:18.113Z,44.53
2022-12-31T07:01:05.545Z,29.67
2022-12-31T07:04:10.669Z,22.05
2022-12-31T07:06:52.017Z,27.88
2022-12-31T07:09:26.680Z,29.60
2022-12-31T07:12:25.226Z,27.35
2022-12-31T07:15:44.781Z,32.25
2022-12-31T07:18:44.369Z,21.60
2022-12-31T07:21:15.619Z,27.42
2022-12-31T07:23:44.078Z,33.58
2022-12-31T07:26:26.072Z,28.17
2022-12-31T07:29:08.859Z,19.15
2022-12-31T07:32:22.619Z,20.25
2022-12-31T07:35:02.470Z,17.13
2022-12-31T07:37:33.854Z,17.73
2022-12-31T07:40:46.629Z,21.55
2022-12-31T07:43:45.519Z,18.52
2022-12-31T07:46:16.354Z,17.00
2022-12-31T07:48:44.734Z,19.52
2022-12-31T07:51:13.031Z,17.20
2022-12-31T07:53:41.007Z,16.33
2022-12-31T07:56:10.464Z,27.95
2022-12-31T07:58:41.540Z,18.42
2022-12-31T08:01:13.680Z,25.33
2022-12-31T08:04:16.175Z,20.58
2022-12-31T08:07:09.117Z,17.85
2022-12-31T08:10:17.990Z,19.08
2022-12-31T08:12:48.828Z,21.27
2022-12-31T08:15:19.377Z,15.90
2022-12-31T08:17:47.833Z,21.63
2022-12-31T08:20:17.721Z,17.17
2022-12-31T08:22:51.693Z,18.90
2022-12-31T08:25:54.972Z,22.83
2022-12-31T08:28:51.031Z,21.42
2022-12-31T08:31:23.241Z,17.38
2022-12-31T08:34:05.996Z,19.35
2022-12-31T08:36:45.858Z,22.80
2022-12-31T08:39:21.981Z,21.35
2022-12-31T08:41:54.955Z,20.90
2022-12-31T08:44:55.680Z,24.85
2022-12-31T08:47:47.100Z,25.58
2022-12-31T08:56:24.480Z,36.30
2022-12-31T08:59:15.520Z,25.38
2022-12-31T09:02:22.031Z,27.38
2022-12-31T09:05:19.935Z,28.95
2022-12-31T09:08:37.215Z,20.15
2022-12-31T09:11:11.444Z,21.00
2022-12-31T09:13:56.301Z,26.17
2022-12-31T09:16:43.643Z,29.85
2022-12-31T09:19:11.998Z,29.45
2022-12-31T09:21:44.646Z,29.60
2022-12-31T09:24:16.100Z,29.83
2022-12-31T09:27:10.114Z,36.50
2022-12-31T09:29:59.163Z,20.10
2022-12-31T09:32:52.911Z,34.53
2022-12-31T09:35:54.227Z,26.20
2022-12-31T09:38:31.257Z,32.78
2022-12-31T09:41:48.403Z,33.90
2022-12-31T09:44:57.969Z,32.60
2022-12-31T09:47:49.784Z,29.08
2022-12-31T09:50:39.825Z,24.85
2022-12-31T09:53:23.910Z,26.67
2022-12-31T09:56:13.366Z,19.88
2022-12-31T09:58:45.769Z,21.42
2022-12-31T10:01:29.199Z,27.95
2022-12-31T10:04:24.425Z,26.92
2022-12-31T10:07:05.800Z,19.15
2022-12-31T10:09:48.986Z,22.10
2022-12-31T10:12:27.575Z,25.73
2022-12-31T10:15:07.364Z,29.60
2022-12-31T10:18:00.383Z,30.10
2022-12-31T10:20:56.329Z,23.67
2022-12-31T10:23:56.382Z,32.60
2022-12-31T10:26:58.154Z,28.55
2022-12-31T10:29:45.537Z,26.10
2022-12-31T10:32:37.916Z,24.75
2022-12-31T10:35:21.316Z,29.42
2022-12-31T10:37:57.284Z,28.75
2022-12-31T10:41:02.952Z,39.08
2022-12-31T10:44:04.288Z,40.70
2022-12-31T10:46:40.983Z,31.95
2022-12-31T10:50:07.419Z,24.48
2022-12-31T10:53:00.739Z,32.30
2022-12-31T10:56:19.845Z,35.17
2022-12-31T11:02:31.607Z,27.33
2022-12-31T11:05:32.312Z,32.63
2022-12-31T11:08:31.082Z,28.67
2022-12-31T11:11:17.763Z,30.52
2022-12-31T11:13:51.884Z,23.23
2022-12-31T11:16:22.421Z,26.63
2022-12-31T11:19:16.688Z,16.05
2022-12-31T11:22:13.281Z,19.65
2022-12-31T11:24:47.192Z,22.42
2022-12-31T11:27:27.275Z,29.13
2022-12-31T11:30:20.127Z,24.98
2022-12-31T11:33:09.578Z,24.20
2022-12-31T11:36:09.532Z,24.75
2022-12-31T11:38:59.446Z,28.20
2022-12-31T11:42:03.606Z,19.75
2022-12-31T11:45:01.638Z,27.88
2022-12-31T11:47:44.662Z,23.45
2022-12-31T11:50:34.967Z,31.10
2022-12-31T11:53:03.087Z,26.85
2022-12-31T11:55:52.711Z,28.15
2022-12-31T11:58:21.393Z,31.73
2022-12-31T12:01:00.672Z,28.50
2022-12-31T12:06:17.091Z,29.92
2022-12-31T12:08:46.928Z,28.73
2022-12-31T12:11:32.677Z,33.03
2022-12-31T12:14:00.816Z,27.55
2022-12-31T12:16:29.244Z,32.38
2022-12-31T12:19:06.501Z,41.08
2022-12-31T12:21:34.969Z,27.35
2022-12-31T12:24:20.846Z,30.80
2022-12-31T12:26:49.466Z,35.17
2022-12-31T12:29:23.791Z,34.47
2022-12-31T12:32:01.856Z,33.72
2022-12-31T12:34:35.996Z,32.38
2022-12-31T12:37:04.447Z,40.90
2022-12-31T12:39:35.129Z,39.35
2022-12-31T12:42:13.125Z,32.85
2022-12-31T12:44:42.245Z,23.38
2022-12-31T12:47:16.399Z,42.03
2022-12-31T12:49:54.824Z,31.73
2022-12-31T12:52:25.935Z,36.45
2022-12-31T12:55:21.511Z,31.67
2022-12-31T12:58:01.530Z,34.55
2022-12-31T13:00:48.378Z,27.23
2022-12-31T13:04:32.506Z,28.98
2022-12-31T13:07:23.934Z,29.83
2022-12-31T13:10:10.468Z,31.20
2022-12-31T13:16:10.429Z,27.73
2022-12-31T13:21:33.270Z,40.95
2022-12-31T13:26:43.347Z,23.50
2022-12-31T13:29:21.158Z,37.05
2022-12-31T13:31:52.764Z,40.33
2022-12-31T13:34:31.644Z,31.52
2022-12-31T13:37:05.498Z,33.72
2022-12-31T13:39:40.132Z,40.33
2022-12-31T13:42:33.145Z,34.53
2022-12-31T13:45:16.911Z,30.17
2022-12-31T13:47:54.661Z,28.73
2022-12-31T13:50:52.158Z,32.10
2022-12-31T13:53:34.456Z,36.95
2022-12-31T13:56:13.898Z,37.92
2022-12-31T13:59:11.571Z,39.65
2022-12-31T14:01:46.853Z,38.33
2022-12-31T14:04:20.361Z,39.30
2022-12-31T14:06:58.338Z,31.27
2022-12-31T14:12:40.318Z,45.38
2022-12-31T14:15:23.694Z,41.28
2022-12-31T14:18:03.702Z,36.58
2022-12-31T14:21:28.148Z,38.47
2022-12-31T14:24:06.163Z,33.28
2022-12-31T14:26:43.190Z,46.47
2022-12-31T14:29:11.483Z,47.40
2022-12-31T14:32:09.845Z,46.80
2022-12-31T14:34:47.800Z,44.30
2022-12-31T14:37:34.193Z,39.92
2022-12-31T14:40:29.212Z,44.65
2022-12-31T14:43:15.147Z,42.75
2022-12-31T14:45:55.067Z,39.72
2022-12-31T14:48:46.440Z,47.28
2022-12-31T14:51:15.332Z,37.90
2022-12-31T14:53:57.079Z,46.78
2022-12-31T14:56:31.877Z,46.38
2022-12-31T14:59:02.163Z,43.15
2022-12-31T15:01:30.524Z,50.03
2022-12-31T15:03:59.104Z,35.20
2022-12-31T15:06:27.211Z,47.47
2022-12-31T15:09:08.610Z,49.45
2022-12-31T15:12:21.651Z,45.78
2022-12-31T15:14:58.728Z,41.13
2022-12-31T15:17:44.990Z,50.05
2022-12-31T15:20:40.760Z,36.20
2022-12-31T15:23:23.367Z,47.28
2022-12-31T15:26:01.853Z,42.95
2022-12-31T15:28:59.935Z,46.33
2022-12-31T15:31:28.797Z,45.88
2022-12-31T15:34:02.914Z,49.22
2022-12-31T15:37:01.736Z,63.47
2022-12-31T15:39:32.828Z,59.33
2022-12-31T15:42:36.656Z,51.25
2022-12-31T15:44:57.293Z,62.38
2022-12-31T15:47:25.296Z,50.95
2022-12-31T15:49:55.093Z,55.50
2022-12-31T15:52:26.668Z,45.97
2022-12-31T15:55:37.923Z,45.45
2022-12-31T15:58:28.165Z,61.53
2022-12-31T16:01:24.916Z,50.88
2022-12-31T16:07:03.687Z,49.00
2022-12-31T16:09:34.969Z,63.83
2022-12-31T16:12:30.812Z,57.08
2022-12-31T16:15:00.885Z,60.50
2022-12-31T16:17:35.124Z,38.80
2022-12-31T16:20:25.846Z,58.60
2022-12-31T16:22:57.809Z,59.08
2022-12-31T16:25:32.307Z,44.83
2022-12-31T16:28:03.031Z,50.25
2022-12-31T16:30:34.036Z,48.33
2022-12-31T16:33:07.584Z,43.45
2022-12-31T16:35:37.454Z,38.97
2022-12-31T16:38:08.612Z,49.53
2022-12-31T16:40:36.670Z,38.05
2022-12-31T16:43:04.988Z,34.90
2022-12-31T16:45:34.612Z,40.95
2022-12-31T16:48:16.383Z,47.75
2022-12-31T16:50:48.191Z,39.17
2022-12-31T16:53:24.191Z,35.45
2022-12-31T16:56:06.484Z,38.72
2022-12-31T16:58:45.656Z,48.17
2022-12-31T17:01:27.886Z,35.35
2022-12-31T17:04:03.691Z,38.40
2022-12-31T17:06:33.817Z,39.45
2022-12-31T17:09:10.291Z,43.15
2022-12-31T17:11:45.454Z,34.30
2022-12-31T17:14:16.092Z,42.38
2022-12-31T17:17:07.793Z,40.05
2022-12-31T17:19:43.694Z,38.70
2022-12-31T17:22:54.946Z,40.45
2022-12-31T17:25:25.391Z,44.80
2022-12-31T17:27:58.120Z,49.60
2022-12-31T17:30:45.034Z,50.88
2022-12-31T17:33:22.218Z,39.65
2022-12-31T17:35:56.500Z,50.28
2022-12-31T17:38:49.250Z,43.25
2022-12-31T17:41:28.039Z,42.53
2022-12-31T17:43:57.576Z,44.92
2022-12-31T17:46:26.673Z,48.47
2022-12-31T17:49:01.221Z,65.65
2022-12-31T17:51:29.254Z,59.72
2022-12-31T17:54:00.261Z,62.33
2022-12-31T17:56:28.599Z,67.20
2022-12-31T17:58:56.663Z,51.70
2022-12-31T18:01:24.893Z,62.83
2022-12-31T18:03:53.002Z,66.28
2022-12-31T18:06:21.249Z,57.13
2022-12-31T18:08:49.494Z,57.50
2022-12-31T18:11:23.833Z,62.83
2022-12-31T18:13:54.420Z,58.20
2022-12-31T18:16:22.691Z,67.50
2022-12-31T18:18:50.735Z,53.55
2022-12-31T18:21:27.295Z,68.43
2022-12-31T18:26:24.884Z,71.43
2022-12-31T18:28:53.755Z,61.60
2022-12-31T18:31:27.196Z,71.35
2022-12-31T18:34:15.419Z,53.70
2022-12-31T18:36:43.930Z,64.90
2022-12-31T18:39:12.066Z,66.80
2022-12-31T18:41:49.892Z,62.53
2022-12-31T18:44:18.428Z,64.60
2022-12-31T18:46:46.514Z,56.67
2022-12-31T18:49:14.483Z,50.50
2022-12-31T18:51:42.565Z,64.25
2022-12-31T18:54:12.301Z,65.07
2022-12-31T18:56:46.540Z,53.92
2022-12-31T18:59:15.909Z,69.80
2022-12-31T19:01:44.322Z,58.35
2022-12-31T19:04:17.764Z,60.47
2022-12-31T19:07:08.025Z,57.30
2022-12-31T19:09:58.133Z,49.65
2022-12-31T19:12:43.899Z,57.45
2022-12-31T19:21:05.750Z,64.85
2022-12-31T19:23:33.840Z,71.28
2022-12-31T19:26:01.938Z,78.97
2022-12-31T19:28:30.079Z,84.53
2022-12-31T19:30:58.067Z,71.30
2022-12-31T19:33:26.201Z,76.18
2022-12-31T19:35:54.206Z,74.78
2022-12-31T19:38:25.353Z,78.43
2022-12-31T19:40:54.135Z,65.95
2022-12-31T19:43:23.801Z,62.70
2022-12-31T19:45:52.809Z,71.72
2022-12-31T19:48:32.360Z,66.20
2022-12-31T19:51:01.296Z,61.38
2022-12-31T19:53:29.536Z,60.60
2022-12-31T19:55:57.594Z,71.78
2022-12-31T19:58:27.287Z,70.43
2022-12-31T20:01:02.360Z,68.68
2022-12-31T20:03:32.905Z,66.72
2022-12-31T20:06:09.297Z,56.22
2022-12-31T20:08:39.184Z,61.15
2022-12-31T20:11:12.304Z,67.45
2022-12-31T20:13:41.373Z,53.60
2022-12-31T20:16:12.622Z,55.30
2022-12-31T20:18:42.123Z,53.55
2022-12-31T20:21:26.026Z,59.80
2022-12-31T20:26:40.240Z,39.63
2022-12-31T20:29:08.307Z,46.28
2022-12-31T20:31:36.390Z,60.70
2022-12-31T20:34:04.568Z,53.67
2022-12-31T20:36:32.697Z,42.92
2022-12-31T20:39:00.920Z,39.70
2022-12-31T20:41:28.960Z,49.55
2022-12-31T20:43:57.151Z,38.05
2022-12-31T20:46:28.038Z,43.17
2022-12-31T20:49:01.453Z,39.45
2022-12-31T20:51:32.223Z,40.72
2022-12-31T20:54:10.281Z,41.05
2022-12-31T20:56:56.909Z,43.53
2022-12-31T20:59:25.127Z,50.13
2022-12-31T21:02:20.613Z,38.35
2022-12-31T21:04:42.021Z,47.58
2022-12-31T21:07:10.104Z,40.53
2022-12-31T21:09:38.212Z,45.10
2022-12-31T21:12:24.857Z,45.65
2022-12-31T21:14:53.018Z,37.97
2022-12-31T21:17:21.296Z,39.60
2022-12-31T21:19:49.589Z,40.72
2022-12-31T21:22:17.581Z,46.83
2022-12-31T21:25:05.227Z,60.67
2022-12-31T21:27:33.304Z,44.75
2022-12-31T21:30:18.501Z,49.10
2022-12-31T21:32:47.733Z,39.85
2022-12-31T21:40:53.590Z,38.92
2022-12-31T21:43:21.714Z,50.63
2022-12-31T21:46:00.673Z,44.55
2022-12-31T21:48:28.841Z,42.03
2022-12-31T21:51:08.198Z,50.30
2022-12-31T21:53:37.547Z,49.70
2022-12-31T21:56:09.480Z,35.50
2022-12-31T21:58:43.517Z,40.05
2022-12-31T22:01:40.706Z,57.83
2022-12-31T22:04:28.260Z,49.10
2022-12-31T22:06:56.892Z,47.17
2022-12-31T22:09:24.913Z,42.08
2022-12-31T22:11:52.934Z,43.58
2022-12-31T22:14:21.052Z,42.70
2022-12-31T22:19:48.653Z,36.22
2022-12-31T22:22:22.609Z,40.80
2022-12-31T22:24:50.757Z,41.88
2022-12-31T22:27:29.385Z,37.67
2022-12-31T22:29:57.974Z,45.45
2022-12-31T22:32:25.954Z,51.58
2022-12-31T22:34:53.985Z,47.30
2022-12-31T22:37:54.870Z,40.60
2022-12-31T22:40:10.897Z,43.58
2022-12-31T22:42:38.949Z,33.53
2022-12-31T22:45:08.629Z,47.60
2022-12-31T22:47:36.808Z,35.35
2022-12-31T22:50:05.366Z,45.85
2022-12-31T22:52:33.351Z,38.35
2022-12-31T22:55:01.448Z,37.55
2022-12-31T22:57:29.457Z,46.13
2022-12-31T22:59:57.625Z,41.80
2022-12-31T23:02:25.883Z,31.38
2022-12-31T23:04:53.972Z,44.30
2022-12-31T23:07:41.924Z,45.97
2022-12-31T23:10:29.413Z,38.50
2022-12-31T23:12:59.134Z,55.53
2022-12-31T23:15:46.048Z,43.35
2022-12-31T23:18:32.923Z,46.10
2022-12-31T23:21:19.479Z,52.65
2022-12-31T23:23:47.543Z,48.60
2022-12-31T23:26:15.633Z,47.55
2022-12-31T23:28:44.588Z,38.78
2022-12-31T23:31:12.750Z,45.22
2022-12-31T23:33:40.795Z,36.42
2022-12-31T23:36:09.262Z,44.50
2022-12-31T23:38:37.355Z,42.08
2022-12-31T23:41:20.300Z,42.47
2022-12-31T23:43:48.866Z,50.65
2022-12-31T23:46:35.844Z,48.50
2022-12-31T23:49:22.904Z,45.13
2022-12-31T23:51:50.945Z,39.83
2022-12-31T23:54:18.999Z,44.40
2022-12-31T23:56:47.131Z,47.65
2022-12-31T23:59:15.163Z,50.15
